createdAt,value
2023-04-14T00:00:51.806Z,8.45
2023-04-14T00:03:20.452Z,8.44
2023-04-14T00:05:48.138Z,8.44
2023-04-14T00:08:15.626Z,8.44
2023-04-14T00:10:42.710Z,8.43
2023-04-14T00:13:09.368Z,8.42
2023-04-14T00:15:41.048Z,8.42
2023-04-14T00:18:08.125Z,8.41
2023-04-14T00:20:34.900Z,8.39
2023-04-14T00:23:01.516Z,8.36
2023-04-14T00:25:28.343Z,8.35
2023-04-14T00:27:54.917Z,8.33
2023-04-14T00:30:24.460Z,8.30
2023-04-14T00:32:51.417Z,8.29
2023-04-14T00:35:18.028Z,8.28
2023-04-14T00:37:45.878Z,8.27
2023-04-14T00:40:12.696Z,8.27
2023-04-14T00:42:46.352Z,8.25
2023-04-14T00:45:14.354Z,8.22
2023-04-14T00:47:42.406Z,8.19
2023-04-14T00:50:10.092Z,8.19
2023-04-14T00:52:37.054Z,8.18
2023-04-14T00:55:07.156Z,8.17
2023-04-14T00:57:34.145Z,8.16
2023-04-14T01:00:01.095Z,8.14
2023-04-14T01:02:30.408Z,8.12
2023-04-14T01:07:26.136Z,8.07
2023-04-14T01:09:54.103Z,8.05
2023-04-14T01:12:42.788Z,8.03
2023-04-14T01:15:33.639Z,8.04
2023-04-14T01:18:45.284Z,8.03
2023-04-14T01:21:15.848Z,7.98
2023-04-14T01:23:55.743Z,7.96
2023-04-14T01:26:29.248Z,7.95
2023-04-14T01:29:24.743Z,7.94
2023-04-14T01:32:11.082Z,7.92
2023-04-14T01:34:51.490Z,7.90
2023-04-14T01:37:30.954Z,7.87
2023-04-14T01:40:02.240Z,7.84
2023-04-14T01:42:32.773Z,7.81
2023-04-14T01:45:05.321Z,7.78
2023-04-14T01:47:32.187Z,7.78
2023-04-14T01:49:58.890Z,7.76
2023-04-14T01:52:27.492Z,7.74
2023-04-14T01:54:56.011Z,7.71
2023-04-14T01:57:25.928Z,7.69
2023-04-14T01:59:54.424Z,7.67
2023-04-14T02:02:21.162Z,7.67
2023-04-14T02:04:48.204Z,7.66
2023-04-14T02:07:18.874Z,7.64
2023-04-14T02:09:45.597Z,7.63
2023-04-14T02:12:12.875Z,7.64
2023-04-14T02:14:41.130Z,7.65
2023-04-14T02:17:09.149Z,7.65
2023-04-14T02:19:36.563Z,7.66
2023-04-14T02:22:03.471Z,7.66
2023-04-14T02:24:31.581Z,7.66
2023-04-14T02:27:11.112Z,7.65
2023-04-14T02:29:40.361Z,7.64
2023-04-14T02:32:11.208Z,7.62
2023-04-14T02:35:04.261Z,7.62
2023-04-14T02:37:35.460Z,7.63
2023-04-14T02:40:10.938Z,7.63
2023-04-14T02:42:40.853Z,7.61
2023-04-14T02:45:11.678Z,7.60
2023-04-14T02:47:40.580Z,7.61
2023-04-14T02:50:09.888Z,7.61
2023-04-14T02:52:37.094Z,7.60
2023-04-14T02:55:05.765Z,7.57
2023-04-14T02:57:32.795Z,7.53
2023-04-14T02:59:59.550Z,7.52
2023-04-14T03:02:29.032Z,7.52
2023-04-14T03:05:04.734Z,7.52
2023-04-14T03:07:41.699Z,7.51
2023-04-14T03:10:10.582Z,7.51
2023-04-14T03:12:38.877Z,7.50
2023-04-14T03:15:06.605Z,7.50
2023-04-14T03:17:33.969Z,7.50
2023-04-14T03:20:06.469Z,7.49
2023-04-14T03:22:38.411Z,7.48
2023-04-14T03:25:06.312Z,7.47
2023-04-14T03:27:34.464Z,7.47
2023-04-14T03:30:03.284Z,7.49
2023-04-14T03:32:36.279Z,7.51
2023-04-14T03:35:03.138Z,7.50
2023-04-14T03:37:31.142Z,7.50
2023-04-14T03:40:01.608Z,7.50
2023-04-14T03:42:31.016Z,7.52
2023-04-14T03:45:00.032Z,7.52
2023-04-14T03:47:31.573Z,7.53
2023-04-14T03:50:01.252Z,7.52
2023-04-14T03:52:33.605Z,7.53
2023-04-14T03:55:05.638Z,7.53
2023-04-14T03:57:33.432Z,7.53
2023-04-14T04:00:01.788Z,7.54
2023-04-14T04:02:31.505Z,7.54
2023-04-14T04:04:58.523Z,7.56
2023-04-14T04:07:26.055Z,7.57
2023-04-14T04:09:53.398Z,7.59
2023-04-14T04:12:20.340Z,7.63
2023-04-14T04:14:55.778Z,7.64
2023-04-14T04:17:23.437Z,7.67
2023-04-14T04:19:51.211Z,7.67
2023-04-14T04:22:19.774Z,7.67
2023-04-14T04:24:46.855Z,7.68
2023-04-14T04:27:27.117Z,7.67
2023-04-14T04:29:55.838Z,7.67
2023-04-14T04:32:23.111Z,7.67
2023-04-14T04:34:50.543Z,7.67
2023-04-14T04:37:19.485Z,7.66
2023-04-14T04:39:47.989Z,7.67
2023-04-14T04:42:15.925Z,7.70
2023-04-14T04:44:44.395Z,7.74
2023-04-14T04:47:11.433Z,7.74
2023-04-14T04:49:39.242Z,7.74
2023-04-14T04:52:06.570Z,7.75
2023-04-14T04:54:33.321Z,7.75
2023-04-14T04:57:00.004Z,7.75
2023-04-14T04:59:26.983Z,7.75
2023-04-14T05:01:55.625Z,7.74
2023-04-14T05:04:22.921Z,7.74
2023-04-14T05:06:49.713Z,7.75
2023-04-14T05:09:19.974Z,7.74
2023-04-14T05:11:48.484Z,7.72
2023-04-14T05:14:15.617Z,7.72
2023-04-14T05:16:42.226Z,7.72
2023-04-14T05:19:11.112Z,7.71
2023-04-14T05:21:38.306Z,7.68
2023-04-14T05:24:06.695Z,7.67
2023-04-14T05:26:57.881Z,7.67
2023-04-14T05:29:22.436Z,7.69
2023-04-14T05:31:49.862Z,7.73
2023-04-14T05:34:16.608Z,7.75
2023-04-14T05:36:45.059Z,7.76
2023-04-14T05:39:13.080Z,7.78
2023-04-14T05:41:44.842Z,7.80
2023-04-14T05:44:11.656Z,7.81
2023-04-14T05:46:38.380Z,7.83
2023-04-14T05:49:05.841Z,7.87
2023-04-14T05:51:32.818Z,7.90
2023-04-14T05:54:00.714Z,7.91
2023-04-14T05:56:28.736Z,7.92
2023-04-14T05:58:55.937Z,7.97
2023-04-14T06:01:22.861Z,8.03
2023-04-14T06:03:51.327Z,8.09
2023-04-14T06:06:19.626Z,8.15
2023-04-14T06:08:48.200Z,8.22
2023-04-14T06:11:15.197Z,8.26
2023-04-14T06:13:44.249Z,8.29
2023-04-14T06:16:11.379Z,8.32
2023-04-14T06:18:38.444Z,8.36
2023-04-14T06:21:05.280Z,8.40
2023-04-14T06:23:32.046Z,8.39
2023-04-14T06:26:01.443Z,8.40
2023-04-14T06:28:28.769Z,8.41
2023-04-14T06:30:55.537Z,8.43
2023-04-14T06:33:22.473Z,8.47
2023-04-14T06:35:51.338Z,8.49
2023-04-14T06:38:19.226Z,8.49
2023-04-14T06:40:46.031Z,8.47
2023-04-14T06:43:14.501Z,8.47
2023-04-14T06:45:41.569Z,8.46
2023-04-14T06:48:08.471Z,8.45
2023-04-14T06:50:37.065Z,8.46
2023-04-14T06:53:06.594Z,8.47
2023-04-14T06:55:34.969Z,8.50
2023-04-14T06:58:03.980Z,8.52
2023-04-14T07:00:32.115Z,8.56
2023-04-14T07:02:59.306Z,8.62
2023-04-14T07:05:27.438Z,8.68
2023-04-14T07:07:56.267Z,8.71
2023-04-14T07:10:23.351Z,8.74
2023-04-14T07:12:50.384Z,8.78
2023-04-14T07:15:18.884Z,8.82
2023-04-14T07:17:45.884Z,8.84
2023-04-14T07:20:12.946Z,8.87
2023-04-14T07:22:40.152Z,8.92
2023-04-14T07:25:07.391Z,8.98
2023-04-14T07:27:35.193Z,9.06
2023-04-14T07:30:08.930Z,9.16
2023-04-14T07:32:37.855Z,9.26
2023-04-14T07:35:08.134Z,9.35
2023-04-14T07:37:37.029Z,9.41
2023-04-14T07:40:04.317Z,9.47
2023-04-14T07:42:32.012Z,9.54
2023-04-14T07:45:02.550Z,9.59
2023-04-14T07:47:29.790Z,9.61
2023-04-14T07:49:57.757Z,9.63
2023-04-14T07:52:26.160Z,9.63
2023-04-14T07:54:52.928Z,9.61
2023-04-14T07:57:19.915Z,9.62
2023-04-14T07:59:46.977Z,9.64
2023-04-14T08:02:13.785Z,9.63
2023-04-14T08:04:40.713Z,9.62
2023-04-14T08:07:07.580Z,9.60
2023-04-14T08:09:35.041Z,9.61
2023-04-14T08:12:02.163Z,9.62
2023-04-14T08:14:29.233Z,9.63
2023-04-14T08:17:01.143Z,9.65
2023-04-14T08:19:28.230Z,9.65
2023-04-14T08:21:56.389Z,9.68
2023-04-14T08:24:28.265Z,9.75
2023-04-14T08:26:56.408Z,9.81
2023-04-14T08:29:23.251Z,9.87
2023-04-14T08:31:50.898Z,9.92
2023-04-14T08:34:21.637Z,9.97
2023-04-14T08:36:56.303Z,10.04
2023-04-14T08:39:23.285Z,10.08
2023-04-14T08:41:50.877Z,10.13
2023-04-14T08:44:18.738Z,10.18
2023-04-14T08:46:45.825Z,10.24
2023-04-14T08:49:15.938Z,10.28
2023-04-14T08:51:43.002Z,10.33
2023-04-14T08:54:10.598Z,10.36
2023-04-14T08:56:39.750Z,10.37
2023-04-14T08:59:10.710Z,10.33
2023-04-14T09:01:39.078Z,10.35
2023-04-14T09:04:07.327Z,10.39
2023-04-14T09:06:34.574Z,10.45
2023-04-14T09:09:07.069Z,10.50
2023-04-14T09:11:33.967Z,10.55
2023-04-14T09:14:01.928Z,10.60
2023-04-14T09:16:34.764Z,10.68
2023-04-14T09:19:07.354Z,10.74
2023-04-14T09:21:53.491Z,10.81
2023-04-14T09:25:04.690Z,10.89
2023-04-14T09:27:32.340Z,10.90
2023-04-14T09:29:59.865Z,10.91
2023-04-14T09:32:30.658Z,10.92
2023-04-14T09:34:58.433Z,10.90
2023-04-14T09:37:25.933Z,10.84
2023-04-14T09:39:54.821Z,10.80
2023-04-14T09:42:36.658Z,10.76
2023-04-14T09:45:04.751Z,10.73
2023-04-14T09:47:34.805Z,10.71
2023-04-14T09:50:03.363Z,10.71
2023-04-14T09:52:47.847Z,10.66
2023-04-14T09:55:15.494Z,10.63
2023-04-14T09:57:43.499Z,10.58
2023-04-14T10:00:21.704Z,10.56
2023-04-14T10:03:12.071Z,10.56
2023-04-14T10:05:38.799Z,10.59
2023-04-14T10:08:06.826Z,10.65
2023-04-14T10:10:33.614Z,10.72
2023-04-14T10:13:07.929Z,10.82
2023-04-14T10:15:37.092Z,10.91
2023-04-14T10:18:03.817Z,11.02
2023-04-14T10:20:30.995Z,11.06
2023-04-14T10:22:58.481Z,11.02
2023-04-14T10:25:25.779Z,10.95
2023-04-14T10:27:52.531Z,10.86
2023-04-14T10:30:20.166Z,10.77
2023-04-14T10:32:47.482Z,10.70
2023-04-14T10:35:18.828Z,10.65
2023-04-14T10:37:52.219Z,10.59
2023-04-14T10:40:19.110Z,10.52
2023-04-14T10:42:54.115Z,10.44
2023-04-14T10:45:24.001Z,10.39
2023-04-14T10:47:52.075Z,10.29
2023-04-14T10:50:21.870Z,10.17
2023-04-14T10:52:56.162Z,10.07
2023-04-14T10:55:24.503Z,9.98
2023-04-14T10:57:51.638Z,9.95
2023-04-14T11:00:25.620Z,9.91
2023-04-14T11:02:55.387Z,9.91
2023-04-14T11:05:22.571Z,9.91
2023-04-14T11:07:55.593Z,9.92
2023-04-14T11:10:23.486Z,9.98
2023-04-14T11:12:58.890Z,10.04
2023-04-14T11:15:49.704Z,10.07
2023-04-14T11:18:28.417Z,10.09
2023-04-14T11:21:25.699Z,10.12
2023-04-14T11:23:52.641Z,10.07
2023-04-14T11:26:23.985Z,10.06
2023-04-14T11:28:53.266Z,10.09
2023-04-14T11:31:22.994Z,10.12
2023-04-14T11:33:50.449Z,10.14
2023-04-14T11:36:17.459Z,10.13
2023-04-14T11:38:46.926Z,10.11
2023-04-14T11:41:15.096Z,10.10
2023-04-14T11:43:45.959Z,10.13
2023-04-14T11:46:12.761Z,10.17
2023-04-14T11:48:41.095Z,10.21
2023-04-14T11:51:07.928Z,10.25
2023-04-14T11:53:35.728Z,10.27
2023-04-14T11:56:05.781Z,10.29
2023-04-14T11:58:33.257Z,10.32
2023-04-14T12:01:00.736Z,10.35
2023-04-14T12:03:36.292Z,10.42
2023-04-14T12:06:03.490Z,10.47
2023-04-14T12:08:30.878Z,10.50
2023-04-14T12:11:13.326Z,10.50
2023-04-14T12:13:41.108Z,10.53
2023-04-14T12:16:07.926Z,10.59
2023-04-14T12:18:35.844Z,10.62
2023-04-14T12:21:03.603Z,10.57
2023-04-14T12:23:40.755Z,10.51
2023-04-14T12:26:11.528Z,10.45
2023-04-14T12:28:41.135Z,10.38
2023-04-14T12:31:08.621Z,10.34
2023-04-14T12:33:35.866Z,10.29
2023-04-14T12:36:07.036Z,10.24
2023-04-14T12:38:33.809Z,10.21
2023-04-14T12:41:00.670Z,10.21
2023-04-14T12:43:35.060Z,10.21
2023-04-14T12:46:03.952Z,10.21
2023-04-14T12:48:47.829Z,10.20
2023-04-14T12:51:16.107Z,10.21
2023-04-14T12:53:44.577Z,10.20
2023-04-14T12:56:16.895Z,10.18
2023-04-14T12:58:47.871Z,10.17
2023-04-14T13:01:16.580Z,10.13
2023-04-14T13:03:53.942Z,10.06
2023-04-14T13:06:23.124Z,9.96
2023-04-14T13:08:51.867Z,9.87
2023-04-14T13:11:20.438Z,9.81
2023-04-14T13:13:54.304Z,9.75
2023-04-14T13:16:21.594Z,9.70
2023-04-14T13:18:48.678Z,9.63
2023-04-14T13:21:17.494Z,9.57
2023-04-14T13:23:44.334Z,9.57
2023-04-14T13:26:11.634Z,9.60
2023-04-14T13:28:51.340Z,9.61
2023-04-14T13:31:20.143Z,9.60
2023-04-14T13:33:47.024Z,9.61
2023-04-14T13:36:13.793Z,9.66
2023-04-14T13:38:42.527Z,9.72
2023-04-14T13:41:09.226Z,9.78
2023-04-14T13:43:36.955Z,9.83
2023-04-14T13:46:04.339Z,9.88
2023-04-14T13:48:31.064Z,9.93
2023-04-14T13:50:59.008Z,9.96
2023-04-14T13:53:25.926Z,9.99
2023-04-14T13:55:53.150Z,10.03
2023-04-14T13:58:20.753Z,10.07
2023-04-14T14:00:48.044Z,10.13
2023-04-14T14:03:34.969Z,10.18
2023-04-14T14:06:02.890Z,10.22
2023-04-14T14:08:30.011Z,10.23
2023-04-14T14:10:56.705Z,10.26
2023-04-14T14:13:25.354Z,10.28
2023-04-14T14:15:52.264Z,10.33
2023-04-14T14:18:21.206Z,10.40
2023-04-14T14:20:50.829Z,10.42
2023-04-14T14:23:17.725Z,10.41
2023-04-14T14:25:44.908Z,10.40
2023-04-14T14:28:12.048Z,10.37
2023-04-14T14:30:38.886Z,10.35
2023-04-14T14:33:06.854Z,10.32
2023-04-14T14:35:34.271Z,10.32
2023-04-14T14:38:01.217Z,10.32
2023-04-14T14:40:31.366Z,10.32
2023-04-14T14:42:59.197Z,10.31
2023-04-14T14:45:30.769Z,10.28
2023-04-14T14:47:59.459Z,10.20
2023-04-14T14:50:26.862Z,10.15
2023-04-14T14:52:56.235Z,10.10
2023-04-14T14:55:23.325Z,10.05
2023-04-14T14:57:50.738Z,10.01
2023-04-14T15:00:23.472Z,9.99
2023-04-14T15:03:09.804Z,9.97
2023-04-14T15:05:37.762Z,9.92
2023-04-14T15:08:04.557Z,9.89
2023-04-14T15:10:33.241Z,9.87
2023-04-14T15:13:00.636Z,9.81
2023-04-14T15:15:27.536Z,9.77
2023-04-14T15:17:56.356Z,9.72
2023-04-14T15:20:23.072Z,9.68
2023-04-14T15:22:50.313Z,9.64
2023-04-14T15:25:17.016Z,9.57
2023-04-14T15:27:45.187Z,9.51
2023-04-14T15:30:12.455Z,9.40
2023-04-14T15:32:39.255Z,9.34
2023-04-14T15:35:09.247Z,9.30
2023-04-14T15:37:36.530Z,9.26
2023-04-14T15:40:03.717Z,9.20
2023-04-14T15:42:32.775Z,9.15
2023-04-14T15:45:00.688Z,9.08
2023-04-14T15:47:27.818Z,9.01
2023-04-14T15:50:08.583Z,8.98
2023-04-14T15:52:39.086Z,8.94
2023-04-14T15:55:07.025Z,8.87
2023-04-14T15:57:35.631Z,8.83
2023-04-14T16:00:06.705Z,8.81
2023-04-14T16:02:41.684Z,8.75
2023-04-14T16:05:10.778Z,8.71
2023-04-14T16:07:38.851Z,8.70
2023-04-14T16:10:06.489Z,8.68
2023-04-14T16:12:34.737Z,8.67
2023-04-14T16:15:06.477Z,8.66
2023-04-14T16:17:33.710Z,8.63
2023-04-14T16:20:01.436Z,8.58
2023-04-14T16:22:41.743Z,8.56
2023-04-14T16:25:09.329Z,8.52
2023-04-14T16:27:35.993Z,8.49
2023-04-14T16:30:03.377Z,8.48
2023-04-14T16:32:35.000Z,8.48
2023-04-14T16:35:01.734Z,8.45
2023-04-14T16:37:33.902Z,8.40
2023-04-14T16:40:01.354Z,8.37
2023-04-14T16:42:28.602Z,8.38
2023-04-14T16:44:57.958Z,8.38
2023-04-14T16:47:24.880Z,8.38
2023-04-14T16:49:52.399Z,8.38
2023-04-14T16:52:20.932Z,8.37
2023-04-14T16:54:47.821Z,8.37
2023-04-14T16:57:14.952Z,8.36
2023-04-14T16:59:45.641Z,8.35
2023-04-14T17:02:12.652Z,8.34
2023-04-14T17:04:40.056Z,8.33
2023-04-14T17:07:09.781Z,8.31
2023-04-14T17:09:38.362Z,8.28
2023-04-14T17:12:05.063Z,8.25
2023-04-14T17:14:32.079Z,8.22
2023-04-14T17:17:01.262Z,8.19
2023-04-14T17:19:29.068Z,8.17
2023-04-14T17:21:56.380Z,8.16
2023-04-14T17:24:25.866Z,8.15
2023-04-14T17:26:52.564Z,8.15
2023-04-14T17:29:20.084Z,8.13
2023-04-14T17:31:48.340Z,8.11
2023-04-14T17:34:17.808Z,8.10
2023-04-14T17:36:44.518Z,8.08
2023-04-14T17:39:11.724Z,8.08
2023-04-14T17:41:38.574Z,8.09
2023-04-14T17:44:06.622Z,8.08
2023-04-14T17:46:33.918Z,8.08
2023-04-14T17:49:03.763Z,8.08
2023-04-14T17:51:31.089Z,8.08
2023-04-14T17:53:59.048Z,8.08
2023-04-14T17:56:27.211Z,8.09
2023-04-14T17:58:55.731Z,8.10
2023-04-14T18:01:23.577Z,8.08
2023-04-14T18:03:50.754Z,8.07
2023-04-14T18:06:17.399Z,8.06
2023-04-14T18:08:46.413Z,8.05
2023-04-14T18:11:13.958Z,8.05
2023-04-14T18:13:41.139Z,8.03
2023-04-14T18:16:10.010Z,8.03
2023-04-14T18:18:46.023Z,8.02
2023-04-14T18:21:12.903Z,8.01
2023-04-14T18:23:40.390Z,8.00
2023-04-14T18:28:43.662Z,7.97
2023-04-14T18:31:13.554Z,7.95
2023-04-14T18:34:08.769Z,7.92
2023-04-14T18:36:38.228Z,7.92
2023-04-14T18:39:06.466Z,7.92
2023-04-14T18:41:34.588Z,7.90
2023-04-14T18:44:02.836Z,7.88
2023-04-14T18:46:30.378Z,7.88
2023-04-14T18:49:00.062Z,7.87
2023-04-14T18:51:27.219Z,7.86
2023-04-14T18:53:54.435Z,7.83
2023-04-14T18:56:21.145Z,7.81
2023-04-14T18:58:48.582Z,7.79
2023-04-14T19:01:16.718Z,7.77
2023-04-14T19:03:46.575Z,7.76
2023-04-14T19:06:13.911Z,7.73
2023-04-14T19:08:41.198Z,7.70
2023-04-14T19:11:10.562Z,7.69
2023-04-14T19:13:41.336Z,7.67
2023-04-14T19:16:10.908Z,7.66
2023-04-14T19:18:39.180Z,7.66
2023-04-14T19:21:08.385Z,7.66
2023-04-14T19:23:36.305Z,7.63
2023-04-14T19:26:04.751Z,7.61
2023-04-14T19:28:39.191Z,7.59
2023-04-14T19:31:05.911Z,7.57
2023-04-14T19:33:32.699Z,7.54
2023-04-14T19:36:00.532Z,7.50
2023-04-14T19:38:28.064Z,7.45
2023-04-14T19:40:54.715Z,7.38
2023-04-14T19:43:22.015Z,7.33
2023-04-14T19:45:50.840Z,7.29
2023-04-14T19:48:23.324Z,7.26
2023-04-14T19:50:52.672Z,7.23
2023-04-14T19:53:20.334Z,7.20
2023-04-14T19:55:51.017Z,7.16
2023-04-14T19:58:21.681Z,7.13
2023-04-14T20:00:51.055Z,7.11
2023-04-14T20:03:19.684Z,7.10
2023-04-14T20:05:51.004Z,7.10
2023-04-14T20:08:19.763Z,7.11
2023-04-14T20:10:51.396Z,7.12
2023-04-14T20:13:22.311Z,7.14
2023-04-14T20:15:58.176Z,7.15
2023-04-14T20:18:27.487Z,7.16
2023-04-14T20:28:53.499Z,7.22
2023-04-14T20:31:21.591Z,7.21
2023-04-14T20:33:50.346Z,7.22
2023-04-14T20:36:17.262Z,7.22
2023-04-14T20:38:43.930Z,7.20
2023-04-14T20:41:11.845Z,7.19
2023-04-14T20:43:41.637Z,7.19
2023-04-14T20:46:08.422Z,7.18
2023-04-14T20:48:40.536Z,7.17
2023-04-14T20:51:08.404Z,7.16
2023-04-14T20:53:35.331Z,7.16
2023-04-14T20:56:06.752Z,7.17
2023-04-14T20:58:34.270Z,7.18
2023-04-14T21:01:02.192Z,7.19
2023-04-14T21:03:33.788Z,7.21
2023-04-14T21:06:01.126Z,7.22
2023-04-14T21:09:05.315Z,7.24
2023-04-14T21:11:32.539Z,7.22
2023-04-14T21:15:40.672Z,7.20
2023-04-14T21:16:46.362Z,7.18
2023-04-14T21:19:13.229Z,7.15
2023-04-14T21:21:43.267Z,7.13
2023-04-14T21:24:09.958Z,7.10
2023-04-14T21:26:36.753Z,7.09
2023-04-14T21:29:04.718Z,7.08
2023-04-14T21:31:31.960Z,7.07
2023-04-14T21:33:59.004Z,7.04
2023-04-14T21:36:26.775Z,7.02
2023-04-14T21:38:53.616Z,7.00
2023-04-14T21:41:20.375Z,6.99
2023-04-14T21:43:47.582Z,6.99
2023-04-14T21:46:14.395Z,6.99
2023-04-14T21:48:42.315Z,6.99
2023-04-14T21:51:10.501Z,6.98
2023-04-14T21:53:38.178Z,6.98
2023-04-14T21:56:09.874Z,6.98
2023-04-14T21:58:41.783Z,6.97
2023-04-14T22:01:11.792Z,6.96
2023-04-14T22:03:40.772Z,6.95
2023-04-14T22:06:10.625Z,6.93
2023-04-14T22:08:40.235Z,6.93
2023-04-14T22:11:07.325Z,6.93
2023-04-14T22:13:34.052Z,6.91
2023-04-14T22:16:03.096Z,6.89
2023-04-14T22:18:31.363Z,6.86
2023-04-14T22:20:58.912Z,6.82
2023-04-14T22:23:26.884Z,6.81
2023-04-14T22:25:53.568Z,6.80
2023-04-14T22:28:21.646Z,6.77
2023-04-14T22:30:48.464Z,6.70
2023-04-14T22:33:16.959Z,6.59
2023-04-14T22:35:43.930Z,6.50
2023-04-14T22:38:10.913Z,6.43
2023-04-14T22:40:38.007Z,6.36
2023-04-14T22:43:08.245Z,6.30
2023-04-14T22:45:37.909Z,6.24
2023-04-14T22:48:06.263Z,6.18
2023-04-14T22:50:33.362Z,6.14
2023-04-14T22:53:00.250Z,6.10
2023-04-14T22:55:26.936Z,6.08
2023-04-14T22:57:53.690Z,6.07
2023-04-14T23:00:24.845Z,6.05
2023-04-14T23:02:52.299Z,6.03
2023-04-14T23:05:19.966Z,6.03
2023-04-14T23:07:53.063Z,6.03
2023-04-14T23:10:23.503Z,6.04
2023-04-14T23:12:50.566Z,6.06
2023-04-14T23:15:18.146Z,6.06
2023-04-14T23:17:47.155Z,6.08
2023-04-14T23:20:14.962Z,6.09
2023-04-14T23:22:42.323Z,6.10
2023-04-14T23:25:10.128Z,6.12
2023-04-14T23:27:39.311Z,6.13
2023-04-14T23:30:07.468Z,6.14
2023-04-14T23:32:34.599Z,6.14
2023-04-14T23:35:01.384Z,6.12
2023-04-14T23:37:29.625Z,6.09
2023-04-14T23:39:57.013Z,6.06
2023-04-14T23:42:24.376Z,6.01
2023-04-14T23:44:51.574Z,5.98
2023-04-14T23:47:18.698Z,5.96
2023-04-14T23:49:48.704Z,5.96
2023-04-14T23:52:15.780Z,5.97
2023-04-14T23:54:42.412Z,5.97
2023-04-14T23:57:12.028Z,5.97
2023-04-14T23:59:38.866Z,5.96
